Time;durP1;ratioP1;P1;durP2;ratioP2;P2;SDS_P1;SDS_P2;PMS_P1;PMS_P2;Temp;Humidity;BMP_temperature;BMP_pressure;BME280_temperature;BME280_humidity;BME280_pressure;Samples;Min_cycle;Max_cycle;Signal;HPM_P1;HPM_P2
2023/09/01 00:00:22;;;;;;;12.95;3.60;;;12.40;99.90;;;;;;5000148;28;20046;-77
2023/09/01 00:02:48;;;;;;;7.63;3.90;;;12.40;99.90;;;;;;5000363;28;20034;-77
2023/09/01 00:05:14;;;;;;;10.38;3.55;;;12.40;99.90;;;;;;5000821;28;20027;-76
2023/09/01 00:07:39;;;;;;;10.90;3.80;;;12.40;99.90;;;;;;5001141;28;20411;-76
2023/09/01 00:10:05;;;;;;;12.73;4.03;;;12.40;99.90;;;;;;5000035;28;20884;-76
2023/09/01 00:12:31;;;;;;;8.93;3.92;;;12.40;99.90;;;;;;4998859;28;20029;-77
2023/09/01 00:14:58;;;;;;;9.98;3.55;;;12.40;99.90;;;;;;4999269;28;20042;-78
2023/09/01 00:17:23;;;;;;;13.18;3.80;;;12.40;99.90;;;;;;5001069;28;20034;-76
2023/09/01 00:19:49;;;;;;;9.30;4.10;;;12.40;99.90;;;;;;5000826;28;20121;-77
2023/09/01 00:22:15;;;;;;;15.02;3.80;;;12.40;99.90;;;;;;5000149;28;20050;-78
2023/09/01 00:24:41;;;;;;;13.00;4.03;;;12.40;99.90;;;;;;5001676;28;20487;-78
2023/09/01 00:27:06;;;;;;;10.88;4.70;;;12.40;99.90;;;;;;5001027;28;20585;-75
2023/09/01 00:29:33;;;;;;;12.85;4.00;;;12.30;99.90;;;;;;5001490;28;20050;-76
2023/09/01 00:31:59;;;;;;;12.45;3.67;;;12.30;99.90;;;;;;5002055;28;20026;-76
2023/09/01 00:34:25;;;;;;;9.65;4.05;;;12.30;99.90;;;;;;5005415;28;20050;-76
2023/09/01 00:36:51;;;;;;;13.75;3.67;;;12.30;99.90;;;;;;5003737;28;20064;-76
2023/09/01 00:39:17;;;;;;;8.95;3.70;;;12.30;99.90;;;;;;5005621;28;20026;-77
2023/09/01 00:41:44;;;;;;;10.75;3.78;;;12.30;99.90;;;;;;5003851;28;20030;-77
2023/09/01 00:44:13;;;;;;;11.48;4.28;;;12.20;99.90;;;;;;5003911;28;20033;-75
2023/09/01 00:46:46;;;;;;;14.23;3.75;;;12.20;99.90;;;;;;5004110;28;20050;-74
2023/09/01 00:49:18;;;;;;;9.48;4.00;;;12.20;99.90;;;;;;5003880;28;20113;-79
2023/09/01 00:51:47;;;;;;;8.77;3.80;;;12.20;99.90;;;;;;5004281;28;20069;-77
2023/09/01 00:54:17;;;;;;;9.50;3.97;;;12.20;99.90;;;;;;5004885;28;20026;-76
2023/09/01 00:56:44;;;;;;;9.07;4.40;;;12.10;99.90;;;;;;5003372;28;20030;-77
2023/09/01 00:59:10;;;;;;;12.65;3.83;;;12.20;99.90;;;;;;5003776;28;20170;-77
2023/09/01 01:01:36;;;;;;;14.80;4.13;;;12.10;99.90;;;;;;5004673;28;20022;-76
2023/09/01 01:04:07;;;;;;;10.25;3.97;;;12.10;99.90;;;;;;5004543;28;20037;-76
2023/09/01 01:06:35;;;;;;;8.43;3.45;;;12.10;99.90;;;;;;5003655;28;20061;-76
2023/09/01 01:09:23;;;;;;;12.93;3.58;;;12.20;99.90;;;;;;5003102;28;20034;-77
2023/09/01 01:11:56;;;;;;;10.05;3.70;;;12.10;99.90;;;;;;5002981;28;20058;-78
2023/09/01 01:14:27;;;;;;;10.07;3.67;;;12.10;99.90;;;;;;5009104;28;20022;-77
2023/09/01 01:16:54;;;;;;;12.15;3.53;;;12.10;99.90;;;;;;5003552;28;20056;-76
2023/09/01 01:19:39;;;;;;;10.70;3.47;;;12.10;99.90;;;;;;5004026;28;20026;-77
2023/09/01 01:22:07;;;;;;;11.75;3.90;;;12.10;99.90;;;;;;5001618;28;20034;-75
2023/09/01 01:24:34;;;;;;;11.38;4.00;;;12.10;99.90;;;;;;5002392;28;20037;-75
2023/09/01 01:27:04;;;;;;;10.38;3.55;;;12.00;99.90;;;;;;5003675;28;20399;-77
2023/09/01 01:29:30;;;;;;;9.73;3.70;;;12.10;99.90;;;;;;5002720;28;20049;-77
2023/09/01 01:31:58;;;;;;;18.27;3.80;;;12.10;99.90;;;;;;5002516;28;20109;-77
2023/09/01 01:34:34;;;;;;;8.75;3.60;;;12.10;99.90;;;;;;5002495;28;20081;-77
2023/09/01 01:37:06;;;;;;;10.57;4.00;;;12.00;99.90;;;;;;5001472;28;20026;-77
2023/09/01 01:39:33;;;;;;;9.38;3.65;;;12.00;99.90;;;;;;5003196;28;20085;-77
2023/09/01 01:42:05;;;;;;;12.80;4.00;;;12.00;99.90;;;;;;5002141;28;20118;-77
2023/09/01 01:44:36;;;;;;;11.00;3.83;;;12.00;99.90;;;;;;5001196;28;20565;-77
2023/09/01 01:47:03;;;;;;;17.42;4.43;;;12.00;99.90;;;;;;5002706;28;20101;-77
2023/09/01 01:49:28;;;;;;;10.77;3.88;;;12.00;99.90;;;;;;5003857;28;20034;-77
2023/09/01 01:51:54;;;;;;;7.82;3.67;;;12.00;99.90;;;;;;5001999;28;20029;-78
2023/09/01 01:54:20;;;;;;;10.25;3.78;;;11.90;99.90;;;;;;5004036;28;20034;-77
2023/09/01 01:56:46;;;;;;;10.30;4.15;;;12.00;99.90;;;;;;5002075;28;20090;-77
2023/09/01 01:59:12;;;;;;;12.55;4.20;;;11.90;99.90;;;;;;5001219;28;20053;-78
2023/09/01 02:01:37;;;;;;;9.77;4.07;;;11.90;99.90;;;;;;5003452;28;20065;-77
2023/09/01 02:04:05;;;;;;;13.18;4.25;;;11.90;99.90;;;;;;5001729;28;20105;-77
2023/09/01 02:06:30;;;;;;;11.00;4.20;;;11.90;99.90;;;;;;5001213;28;20039;-76
2023/09/01 02:08:57;;;;;;;9.25;4.35;;;11.90;99.90;;;;;;5001113;28;20072;-76
2023/09/01 02:11:22;;;;;;;14.60;4.72;;;11.90;99.90;;;;;;5001882;28;20095;-77
2023/09/01 02:13:48;;;;;;;9.38;4.30;;;11.90;99.90;;;;;;5000664;28;20057;-77
2023/09/01 02:16:17;;;;;;;13.82;4.35;;;11.80;99.90;;;;;;5001278;28;20033;-77
2023/09/01 02:18:42;;;;;;;15.40;4.15;;;11.80;99.90;;;;;;5001736;28;20022;-78
2023/09/01 02:21:08;;;;;;;9.30;4.05;;;11.80;99.90;;;;;;5002275;28;20034;-76
2023/09/01 02:23:33;;;;;;;13.48;4.80;;;11.80;99.90;;;;;;5001696;28;20034;-77
2023/09/01 02:25:59;;;;;;;10.07;4.80;;;11.80;99.90;;;;;;5001443;28;20033;-77
2023/09/01 02:28:25;;;;;;;14.38;4.47;;;11.70;99.90;;;;;;5001345;28;20065;-78
2023/09/01 02:30:51;;;;;;;12.05;4.40;;;11.70;99.90;;;;;;5001740;28;20113;-76
2023/09/01 02:33:18;;;;;;;12.15;4.32;;;11.70;99.90;;;;;;5002784;28;20019;-77
2023/09/01 02:35:44;;;;;;;19.20;5.07;;;11.70;99.90;;;;;;5000236;28;20058;-77
2023/09/01 02:38:14;;;;;;;9.80;4.15;;;11.70;99.90;;;;;;5002593;28;20023;-77
2023/09/01 02:40:40;;;;;;;12.63;4.90;;;11.60;99.90;;;;;;5001800;28;20030;-77
2023/09/01 02:43:06;;;;;;;12.77;4.18;;;11.50;99.90;;;;;;5001788;28;20077;-76
2023/09/01 02:45:32;;;;;;;11.85;4.45;;;11.60;99.90;;;;;;5003124;28;20026;-77
2023/09/01 02:47:58;;;;;;;10.02;4.40;;;11.50;99.90;;;;;;5002213;28;20038;-76
2023/09/01 02:50:23;;;;;;;14.65;4.28;;;11.50;99.90;;;;;;5000998;28;20030;-76
2023/09/01 02:52:49;;;;;;;11.88;3.90;;;11.40;99.90;;;;;;5001939;28;20022;-77
2023/09/01 02:55:17;;;;;;;9.57;4.57;;;11.40;99.90;;;;;;4999944;28;20068;-77
2023/09/01 02:57:47;;;;;;;11.75;4.20;;;11.40;99.90;;;;;;5001188;28;20388;-77
2023/09/01 03:00:21;;;;;;;10.43;4.88;;;11.30;99.90;;;;;;5001072;28;20034;-78
2023/09/01 03:02:48;;;;;;;8.45;4.32;;;11.30;99.90;;;;;;5000551;28;20034;-76
2023/09/01 03:05:14;;;;;;;7.90;4.03;;;11.30;99.90;;;;;;4999453;28;20446;-78
2023/09/01 03:07:42;;;;;;;10.57;4.45;;;11.20;99.90;;;;;;5000860;28;21665;-78
2023/09/01 03:10:09;;;;;;;13.43;4.40;;;11.20;99.90;;;;;;5000944;28;20033;-77
2023/09/01 03:12:39;;;;;;;10.93;4.30;;;11.20;99.90;;;;;;5000432;28;20590;-78
2023/09/01 03:15:10;;;;;;;9.30;4.13;;;11.10;99.90;;;;;;4999715;28;20806;-78
2023/09/01 03:17:36;;;;;;;10.70;5.00;;;11.10;99.90;;;;;;5001537;28;20022;-78
2023/09/01 03:20:04;;;;;;;10.80;4.47;;;11.10;99.90;;;;;;5001623;28;20026;-77
2023/09/01 03:22:29;;;;;;;9.80;4.50;;;11.10;99.90;;;;;;5000086;28;20026;-77
2023/09/01 03:24:55;;;;;;;8.52;4.53;;;11.00;99.90;;;;;;5001760;28;20062;-77
2023/09/01 03:27:21;;;;;;;13.07;5.10;;;11.10;99.90;;;;;;4999824;28;20038;-78
2023/09/01 03:29:53;;;;;;;8.63;4.47;;;11.00;99.90;;;;;;5001753;28;20041;-78
2023/09/01 03:32:18;;;;;;;11.65;4.85;;;11.00;99.90;;;;;;5000064;28;20041;-78
2023/09/01 03:34:44;;;;;;;12.60;4.60;;;11.00;99.90;;;;;;5001707;28;20046;-77
2023/09/01 03:37:12;;;;;;;9.88;4.72;;;11.00;99.90;;;;;;5002616;28;20091;-78
2023/09/01 03:39:38;;;;;;;11.73;4.53;;;10.90;99.90;;;;;;5002210;28;20022;-77
2023/09/01 03:42:04;;;;;;;15.35;5.22;;;10.90;99.90;;;;;;5001279;28;20041;-78
2023/09/01 03:44:29;;;;;;;10.10;4.63;;;10.90;99.90;;;;;;5001997;28;20022;-76
2023/09/01 03:46:55;;;;;;;10.00;4.32;;;11.00;99.90;;;;;;5001807;28;20034;-77
2023/09/01 03:49:21;;;;;;;8.65;5.00;;;10.90;99.90;;;;;;5002710;28;20034;-77
2023/09/01 03:51:47;;;;;;;9.07;4.28;;;10.90;99.90;;;;;;5001677;28;20025;-76
2023/09/01 03:54:13;;;;;;;10.63;4.88;;;10.90;99.90;;;;;;5000625;28;20487;-78
2023/09/01 03:56:39;;;;;;;13.10;4.53;;;10.90;99.90;;;;;;5002341;28;20064;-77
2023/09/01 03:59:05;;;;;;;10.07;5.15;;;10.90;99.90;;;;;;5000326;28;20019;-78
2023/09/01 04:01:30;;;;;;;10.05;5.05;;;10.80;99.90;;;;;;5001628;28;20022;-77
2023/09/01 04:03:56;;;;;;;11.63;5.20;;;10.90;99.90;;;;;;5000853;28;20482;-76
2023/09/01 04:06:22;;;;;;;8.73;5.00;;;10.90;99.90;;;;;;5000174;28;20042;-76
2023/09/01 04:08:47;;;;;;;9.02;4.72;;;10.80;99.90;;;;;;5000630;28;20078;-76
2023/09/01 04:11:14;;;;;;;11.63;5.00;;;10.80;99.90;;;;;;5002037;28;20113;-76
2023/09/01 04:13:39;;;;;;;12.75;4.75;;;10.80;99.90;;;;;;4999317;28;20030;-77
2023/09/01 04:16:05;;;;;;;9.60;4.93;;;10.70;99.90;;;;;;5002060;28;20027;-76
2023/09/01 04:18:32;;;;;;;11.05;4.57;;;10.70;99.90;;;;;;5001328;28;20030;-76
2023/09/01 04:20:57;;;;;;;11.55;5.45;;;10.70;99.90;;;;;;4999971;28;20023;-76
2023/09/01 04:23:23;;;;;;;12.48;5.47;;;10.70;99.90;;;;;;5001323;28;20045;-76
2023/09/01 04:25:50;;;;;;;13.85;5.22;;;10.70;99.90;;;;;;5001713;28;20042;-77
2023/09/01 04:28:17;;;;;;;11.43;5.28;;;10.70;99.90;;;;;;5000523;28;20387;-77
2023/09/01 04:30:45;;;;;;;14.63;5.47;;;10.70;99.90;;;;;;5000393;28;20442;-77
2023/09/01 04:33:12;;;;;;;11.15;5.13;;;10.70;99.90;;;;;;5001748;28;20454;-76
2023/09/01 04:35:38;;;;;;;11.77;5.18;;;10.60;99.90;;;;;;5000470;28;20507;-76
2023/09/01 04:38:04;;;;;;;12.63;5.80;;;10.60;99.90;;;;;;5000019;28;20181;-76
2023/09/01 04:40:30;;;;;;;14.40;5.28;;;10.60;99.90;;;;;;5001471;28;20383;-76
2023/09/01 04:42:56;;;;;;;8.45;5.38;;;10.60;99.90;;;;;;4999613;28;20065;-76
2023/09/01 04:45:24;;;;;;;18.60;6.05;;;10.60;99.90;;;;;;5000020;28;20046;-75
2023/09/01 04:47:53;;;;;;;11.80;5.53;;;10.60;99.90;;;;;;5000881;28;20042;-77
2023/09/01 04:50:19;;;;;;;13.10;5.50;;;10.50;99.90;;;;;;4999943;28;20395;-75
2023/09/01 04:52:44;;;;;;;13.85;5.50;;;10.50;99.90;;;;;;4999799;28;20030;-75
2023/09/01 04:55:10;;;;;;;11.23;5.00;;;10.60;99.90;;;;;;4998912;28;20022;-76
2023/09/01 04:57:36;;;;;;;9.05;5.40;;;10.50;99.90;;;;;;5001185;28;20023;-76
2023/09/01 05:00:03;;;;;;;9.80;5.10;;;10.60;99.90;;;;;;5001196;28;20046;-77
2023/09/01 05:02:28;;;;;;;11.63;4.93;;;10.60;99.90;;;;;;5000598;28;20026;-76
2023/09/01 05:04:54;;;;;;;11.60;4.95;;;10.60;99.90;;;;;;5000119;28;20029;-75
2023/09/01 05:07:20;;;;;;;10.13;5.20;;;10.60;99.90;;;;;;5001196;28;20042;-77
2023/09/01 05:09:46;;;;;;;17.35;5.28;;;10.60;99.90;;;;;;5001225;28;20066;-75
2023/09/01 05:12:12;;;;;;;13.57;5.10;;;10.70;99.90;;;;;;5000592;28;20479;-77
2023/09/01 05:14:38;;;;;;;14.20;5.10;;;10.70;99.90;;;;;;4998864;28;20488;-76
2023/09/01 05:17:03;;;;;;;12.00;5.47;;;10.80;99.90;;;;;;4996383;28;20046;-77
2023/09/01 05:19:29;;;;;;;10.48;4.90;;;10.80;99.90;;;;;;4999864;28;20014;-77
2023/09/01 05:21:55;;;;;;;12.15;5.10;;;10.80;99.90;;;;;;4999002;28;20153;-75
2023/09/01 05:24:21;;;;;;;11.30;5.22;;;10.80;99.90;;;;;;5002569;28;20034;-76
2023/09/01 05:26:47;;;;;;;10.90;5.47;;;10.90;99.90;;;;;;5000717;28;20368;-77
2023/09/01 05:29:13;;;;;;;14.98;6.13;;;10.90;99.90;;;;;;5000907;28;20034;-76
2023/09/01 05:31:39;;;;;;;12.18;5.28;;;10.90;99.90;;;;;;5004239;28;20034;-75
2023/09/01 05:34:04;;;;;;;14.65;6.20;;;10.90;99.90;;;;;;5004532;28;20057;-76
2023/09/01 05:36:30;;;;;;;17.33;5.85;;;11.00;99.90;;;;;;5003686;28;20026;-76
2023/09/01 05:38:56;;;;;;;14.40;5.95;;;11.00;99.90;;;;;;5003341;28;20025;-76
2023/09/01 05:41:21;;;;;;;14.63;5.55;;;11.00;99.90;;;;;;5001822;28;20048;-76
2023/09/01 05:43:47;;;;;;;19.70;7.90;;;11.00;99.90;;;;;;5002662;28;20085;-75
2023/09/01 05:46:13;;;;;;;24.50;10.70;;;11.00;99.90;;;;;;5004971;28;20042;-76
2023/09/01 05:48:39;;;;;;;17.33;7.78;;;11.00;99.90;;;;;;5004310;28;20034;-77
2023/09/01 05:51:05;;;;;;;14.68;6.00;;;11.10;99.90;;;;;;5001770;28;20037;-75
2023/09/01 05:53:32;;;;;;;11.38;5.95;;;11.10;99.90;;;;;;5003343;28;20598;-76
2023/09/01 05:55:58;;;;;;;14.75;6.80;;;11.20;99.90;;;;;;5003696;28;20042;-76
2023/09/01 05:58:23;;;;;;;14.02;6.45;;;11.10;99.90;;;;;;5002349;28;20471;-77
2023/09/01 06:00:49;;;;;;;14.40;6.25;;;11.20;99.90;;;;;;5002973;28;20030;-75
2023/09/01 06:03:15;;;;;;;16.15;6.30;;;11.20;99.90;;;;;;5000981;28;20046;-75
2023/09/01 06:05:41;;;;;;;13.20;6.70;;;11.30;99.90;;;;;;5004789;28;20034;-75
2023/09/01 06:08:06;;;;;;;14.43;7.03;;;11.30;99.90;;;;;;5002657;28;20030;-76
2023/09/01 06:10:32;;;;;;;15.38;7.32;;;11.20;99.90;;;;;;5002472;28;20041;-76
2023/09/01 06:12:57;;;;;;;20.55;9.80;;;11.30;99.90;;;;;;5002559;28;20041;-76
2023/09/01 06:15:24;;;;;;;16.60;8.45;;;11.30;99.90;;;;;;5001330;28;20085;-76
2023/09/01 06:17:51;;;;;;;27.73;12.43;;;11.30;99.90;;;;;;5000991;28;20030;-75
2023/09/01 06:20:17;;;;;;;19.70;10.65;;;11.30;99.90;;;;;;5002899;28;20109;-77
2023/09/01 06:22:44;;;;;;;16.02;7.78;;;11.40;99.90;;;;;;5002507;28;20042;-77
2023/09/01 06:25:12;;;;;;;19.73;7.75;;;11.50;99.90;;;;;;4999824;28;20033;-75
2023/09/01 06:27:39;;;;;;;13.27;7.05;;;11.50;99.90;;;;;;5001914;28;20046;-75
2023/09/01 06:30:05;;;;;;;15.68;7.65;;;11.60;99.90;;;;;;5002964;28;20045;-76
2023/09/01 06:32:32;;;;;;;17.10;8.07;;;11.70;99.90;;;;;;4999438;28;20022;-75
2023/09/01 06:34:57;;;;;;;15.52;7.93;;;11.70;99.90;;;;;;5002273;28;20050;-75
2023/09/01 06:37:23;;;;;;;16.67;8.10;;;11.80;99.90;;;;;;5000090;28;20030;-74
2023/09/01 06:39:49;;;;;;;13.40;7.38;;;11.90;99.90;;;;;;4999001;28;20034;-76
2023/09/01 06:42:17;;;;;;;15.52;7.70;;;12.00;99.90;;;;;;5002375;28;20092;-74
2023/09/01 06:44:42;;;;;;;16.10;7.80;;;12.00;99.90;;;;;;5000127;28;20026;-76
2023/09/01 06:47:08;;;;;;;13.32;7.10;;;12.10;99.90;;;;;;5002490;28;20033;-75
2023/09/01 06:49:34;;;;;;;15.80;7.82;;;12.20;99.90;;;;;;5000403;28;20136;-76
2023/09/01 06:51:59;;;;;;;14.98;7.82;;;12.30;99.90;;;;;;5000752;28;20364;-75
2023/09/01 06:54:26;;;;;;;18.20;8.00;;;12.40;99.90;;;;;;4999771;28;20026;-76
2023/09/01 06:56:51;;;;;;;13.35;7.28;;;12.40;99.90;;;;;;5000877;28;20038;-76
2023/09/01 06:59:17;;;;;;;11.40;6.55;;;12.50;99.90;;;;;;5001063;28;20065;-77
2023/09/01 07:01:43;;;;;;;10.82;6.00;;;12.50;99.90;;;;;;5001416;28;20430;-75
2023/09/01 07:04:08;;;;;;;14.60;6.25;;;12.60;99.90;;;;;;5001341;28;20034;-75
2023/09/01 07:06:34;;;;;;;10.55;5.93;;;12.70;99.90;;;;;;5001656;28;20034;-75
2023/09/01 07:09:00;;;;;;;13.85;6.20;;;12.70;99.90;;;;;;5000717;28;20034;-78
2023/09/01 07:11:25;;;;;;;15.93;6.13;;;12.80;99.90;;;;;;5002651;28;20018;-75
2023/09/01 07:13:51;;;;;;;14.25;6.82;;;12.90;99.90;;;;;;5001354;28;20038;-75
2023/09/01 07:16:17;;;;;;;14.88;6.13;;;13.00;99.90;;;;;;5000786;28;20030;-76
2023/09/01 07:18:42;;;;;;;12.35;6.10;;;13.10;99.90;;;;;;5002652;28;20045;-76
2023/09/01 07:21:08;;;;;;;15.18;5.82;;;13.20;99.90;;;;;;4999988;28;20056;-75
2023/09/01 07:23:34;;;;;;;24.58;12.30;;;13.30;99.90;;;;;;5000711;28;20025;-74
2023/09/01 07:26:00;;;;;;;50.70;25.35;;;13.40;99.90;;;;;;5000212;28;20050;-75
2023/09/01 07:28:25;;;;;;;20.90;10.68;;;13.50;99.90;;;;;;5000388;28;20056;-75
2023/09/01 07:30:53;;;;;;;25.10;11.82;;;13.60;99.90;;;;;;5002444;28;20051;-76
2023/09/01 07:33:18;;;;;;;11.23;5.75;;;13.70;99.90;;;;;;4999387;28;20034;-76
2023/09/01 07:35:49;;;;;;;14.73;6.38;;;13.80;99.90;;;;;;4997070;28;20054;-76
2023/09/01 07:38:15;;;;;;;9.35;5.68;;;13.80;99.90;;;;;;5006410;28;20057;-78
2023/09/01 07:40:41;;;;;;;11.02;5.75;;;13.90;99.90;;;;;;5001656;28;20022;-76
2023/09/01 07:43:07;;;;;;;10.90;5.28;;;14.00;99.90;;;;;;5000607;28;20026;-77
2023/09/01 07:45:33;;;;;;;10.95;5.10;;;14.10;99.90;;;;;;5001560;28;20023;-75
2023/09/01 07:47:58;;;;;;;11.70;3.63;;;14.30;99.90;;;;;;5000863;28;20049;-76
2023/09/01 07:50:29;;;;;;;7.70;3.42;;;14.40;99.90;;;;;;4999583;28;20022;-74
2023/09/01 07:52:54;;;;;;;10.40;3.15;;;14.50;99.90;;;;;;4999809;28;20041;-76
2023/09/01 07:55:20;;;;;;;9.88;3.60;;;14.60;99.90;;;;;;5001037;28;20030;-78
2023/09/01 07:57:46;;;;;;;6.22;3.45;;;14.70;99.90;;;;;;5005301;28;20037;-78
2023/09/01 08:00:12;;;;;;;7.40;3.17;;;14.90;99.90;;;;;;4999423;28;20074;-78
2023/09/01 08:02:38;;;;;;;6.22;3.30;;;15.00;99.90;;;;;;4999445;28;20371;-74
2023/09/01 08:05:05;;;;;;;8.00;2.72;;;15.00;99.90;;;;;;4998366;28;20093;-76
2023/09/01 08:07:31;;;;;;;6.45;3.03;;;15.10;99.90;;;;;;4997937;28;20079;-76
2023/09/01 08:09:57;;;;;;;10.27;3.00;;;15.20;99.90;;;;;;5000178;28;20092;-76
2023/09/01 08:12:23;;;;;;;13.05;3.15;;;15.30;99.90;;;;;;4997332;28;20466;-75
2023/09/01 08:14:49;;;;;;;12.02;3.28;;;15.40;99.90;;;;;;4996606;28;20046;-77
2023/09/01 08:17:15;;;;;;;7.00;2.65;;;15.40;99.90;;;;;;4998219;28;20030;-74
2023/09/01 08:19:41;;;;;;;4.97;2.85;;;15.50;99.90;;;;;;5000164;28;20034;-76
2023/09/01 08:22:08;;;;;;;9.15;3.38;;;15.50;99.90;;;;;;4999575;28;20041;-76
2023/09/01 08:24:33;;;;;;;8.18;2.65;;;15.60;99.90;;;;;;4997160;28;20414;-75
2023/09/01 08:27:01;;;;;;;8.35;2.75;;;15.70;99.90;;;;;;4998612;28;20069;-73
2023/09/01 08:29:30;;;;;;;6.20;2.78;;;15.80;99.90;;;;;;4998856;28;20026;-78
2023/09/01 08:31:55;;;;;;;5.43;2.20;;;15.90;99.90;;;;;;5001218;28;20023;-76
2023/09/01 08:34:21;;;;;;;5.57;2.17;;;16.00;99.90;;;;;;4998878;28;20057;-75
2023/09/01 08:36:48;;;;;;;7.47;1.85;;;16.10;99.90;;;;;;5000425;28;20029;-76
2023/09/01 08:39:15;;;;;;;5.10;1.85;;;16.20;99.90;;;;;;4999923;28;20026;-74
2023/09/01 08:41:41;;;;;;;4.70;1.58;;;16.30;99.90;;;;;;5000698;28;20038;-75
2023/09/01 08:44:10;;;;;;;5.80;1.83;;;16.40;99.90;;;;;;4999918;28;20050;-75
2023/09/01 08:46:37;;;;;;;8.50;1.80;;;16.50;99.90;;;;;;5001041;28;20031;-74
2023/09/01 08:49:04;;;;;;;7.30;2.03;;;16.70;99.90;;;;;;5001035;28;20035;-74
2023/09/01 08:51:30;;;;;;;5.03;1.58;;;16.80;99.90;;;;;;5000096;28;20033;-73
2023/09/01 08:53:56;;;;;;;4.07;1.38;;;16.90;99.90;;;;;;5003193;28;20487;-74
2023/09/01 08:56:22;;;;;;;4.38;1.25;;;16.90;99.90;;;;;;5005425;28;20022;-77
2023/09/01 08:58:49;;;;;;;5.10;1.80;;;16.90;99.90;;;;;;5003637;28;20056;-74
2023/09/01 09:01:17;;;;;;;4.38;1.20;;;16.80;99.90;;;;;;5001861;28;20038;-76
2023/09/01 09:03:43;;;;;;;6.78;1.77;;;16.80;99.90;;;;;;5003899;28;20122;-77
2023/09/01 09:06:13;;;;;;;4.05;1.63;;;16.80;99.90;;;;;;5004410;28;20058;-76
2023/09/01 09:08:39;;;;;;;4.25;1.13;;;16.80;99.90;;;;;;5004675;28;20042;-74
2023/09/01 09:11:14;;;;;;;7.47;1.63;;;16.90;99.90;;;;;;5004236;28;20034;-73
2023/09/01 09:13:40;;;;;;;3.88;1.40;;;16.90;99.90;;;;;;5004825;28;20117;-73
2023/09/01 09:16:11;;;;;;;8.57;2.58;;;17.00;99.90;;;;;;5003171;28;20054;-75
2023/09/01 09:18:40;;;;;;;5.20;1.60;;;17.10;99.90;;;;;;5003813;28;20039;-75
2023/09/01 09:21:28;;;;;;;3.50;1.75;;;17.10;99.90;;;;;;5002223;28;20026;-76
2023/09/01 09:23:56;;;;;;;4.78;2.03;;;17.20;99.90;;;;;;5005079;28;20177;-75
2023/09/01 09:26:26;;;;;;;3.88;1.88;;;17.20;99.90;;;;;;5002596;28;20034;-74
2023/09/01 09:28:52;;;;;;;5.72;1.80;;;17.30;99.90;;;;;;5002951;28;20046;-72
2023/09/01 09:31:28;;;;;;;3.72;1.55;;;17.30;99.90;;;;;;4998101;28;20026;-76
2023/09/01 09:33:54;;;;;;;3.90;1.45;;;17.40;99.90;;;;;;5001010;28;20058;-77
2023/09/01 09:36:32;;;;;;;5.75;1.58;;;17.40;99.90;;;;;;5003066;28;20034;-77
2023/09/01 09:38:58;;;;;;;3.33;1.50;;;17.40;99.90;;;;;;5004680;28;20034;-73
2023/09/01 09:41:24;;;;;;;5.57;1.60;;;17.40;99.90;;;;;;5002105;28;20026;-74
2023/09/01 09:43:50;;;;;;;3.22;1.38;;;17.40;99.90;;;;;;5003039;28;20042;-76
2023/09/01 09:46:19;;;;;;;5.95;1.60;;;17.40;99.90;;;;;;5004556;28;20030;-77
2023/09/01 09:48:45;;;;;;;6.90;1.67;;;17.40;99.90;;;;;;5001848;28;20053;-75
2023/09/01 09:51:15;;;;;;;4.95;1.45;;;17.50;99.90;;;;;;5004781;28;20038;-69
2023/09/01 09:53:44;;;;;;;6.75;1.80;;;17.50;99.90;;;;;;5004683;28;20451;-76
2023/09/01 09:56:32;;;;;;;5.65;1.60;;;17.50;99.90;;;;;;5003573;28;20030;-75
2023/09/01 09:59:05;;;;;;;6.65;1.60;;;17.50;99.90;;;;;;5003953;28;20360;-73
2023/09/01 10:01:37;;;;;;;10.88;1.75;;;17.50;99.90;;;;;;5000612;28;20608;-74
2023/09/01 10:04:07;;;;;;;5.22;1.48;;;17.50;99.90;;;;;;5003944;28;20027;-73
2023/09/01 10:06:34;;;;;;;7.95;1.75;;;17.60;99.90;;;;;;5002319;28;20038;-76
2023/09/01 10:09:04;;;;;;;4.28;1.25;;;17.60;99.90;;;;;;5001942;28;20038;-75
2023/09/01 10:11:30;;;;;;;4.90;1.20;;;17.70;99.90;;;;;;4999403;28;20031;-75
2023/09/01 10:13:56;;;;;;;4.25;1.42;;;17.70;99.90;;;;;;5002144;28;20034;-77
2023/09/01 10:16:23;;;;;;;2.22;1.20;;;17.70;99.90;;;;;;5002156;28;20038;-75
2023/09/01 10:18:50;;;;;;;4.20;1.67;;;17.80;99.90;;;;;;5004516;28;20042;-77
2023/09/01 10:21:17;;;;;;;6.07;1.60;;;17.80;99.90;;;;;;5003044;28;20026;-74
2023/09/01 10:23:46;;;;;;;5.22;1.42;;;17.90;99.90;;;;;;5004253;28;20022;-73
2023/09/01 10:26:17;;;;;;;6.03;1.50;;;17.90;99.90;;;;;;5003464;28;20065;-77
2023/09/01 10:29:04;;;;;;;5.43;1.70;;;18.00;99.90;;;;;;5004191;28;20120;-75
2023/09/01 10:31:34;;;;;;;4.75;1.60;;;18.10;99.90;;;;;;5003037;28;20065;-75
2023/09/01 10:34:13;;;;;;;5.25;1.70;;;18.20;99.90;;;;;;5003239;28;20051;-74
2023/09/01 10:36:41;;;;;;;3.55;1.30;;;18.30;99.90;;;;;;5002695;28;20034;-75
2023/09/01 10:39:23;;;;;;;3.47;1.50;;;18.40;99.90;;;;;;5000834;28;20058;-74
2023/09/01 10:42:07;;;;;;;3.47;1.27;;;18.60;99.90;;;;;;5001522;28;20035;-77
2023/09/01 10:44:39;;;;;;;3.03;1.20;;;18.60;99.90;;;;;;5003057;28;20027;-75
2023/09/01 10:47:30;;;;;;;4.40;1.48;;;18.70;99.90;;;;;;5003825;28;20038;-74
2023/09/01 10:49:57;;;;;;;4.10;1.50;;;18.60;99.90;;;;;;5002810;28;20046;-75
2023/09/01 10:52:23;;;;;;;4.05;1.60;;;18.60;99.90;;;;;;5003550;28;20027;-75
2023/09/01 10:55:04;;;;;;;2.75;1.20;;;18.60;99.90;;;;;;5003618;28;20033;-77
2023/09/01 10:57:48;;;;;;;3.80;1.30;;;18.60;99.90;;;;;;5001251;28;20054;-74
2023/09/01 11:00:26;;;;;;;3.78;1.30;;;18.60;99.90;;;;;;5003231;28;20022;-74
2023/09/01 11:02:53;;;;;;;3.42;1.25;;;18.60;99.90;;;;;;5008581;28;20040;-78
2023/09/01 11:05:40;;;;;;;3.85;1.23;;;18.60;99.90;;;;;;5001308;28;20100;-76
2023/09/01 11:08:15;;;;;;;3.15;1.20;;;18.60;99.90;;;;;;5001138;28;20114;-71
2023/09/01 11:10:41;;;;;;;3.85;1.90;;;18.50;99.90;;;;;;5000692;28;20026;-74
2023/09/01 11:13:18;;;;;;;4.15;1.23;;;18.50;99.90;;;;;;5001432;28;20089;-74
2023/09/01 11:15:49;;;;;;;3.85;1.20;;;18.50;99.90;;;;;;4999802;28;20023;-75
2023/09/01 11:18:19;;;;;;;4.68;1.38;;;18.50;99.90;;;;;;5002843;28;20030;-73
2023/09/01 11:20:47;;;;;;;6.70;1.35;;;18.50;99.90;;;;;;5000885;28;20027;-72
2023/09/01 11:23:23;;;;;;;5.93;1.38;;;18.50;99.90;;;;;;4997608;28;20177;-75
2023/09/01 11:25:56;;;;;;;4.40;1.27;;;18.50;99.90;;;;;;4998311;28;20046;-75
2023/09/01 11:28:23;;;;;;;3.85;1.25;;;18.50;99.90;;;;;;4999396;28;20049;-75
2023/09/01 11:30:56;;;;;;;3.88;1.50;;;18.50;99.90;;;;;;4999443;28;20037;-75
2023/09/01 11:33:24;;;;;;;3.10;1.45;;;18.50;99.90;;;;;;4999999;28;20042;-71
2023/09/01 11:36:07;;;;;;;3.40;1.50;;;18.60;99.90;;;;;;5001692;28;20077;-75
2023/09/01 11:38:34;;;;;;;5.22;1.80;;;18.60;99.90;;;;;;4999769;28;20049;-74
2023/09/01 11:41:02;;;;;;;3.78;1.42;;;18.60;99.90;;;;;;4997976;28;20096;-73
2023/09/01 11:43:28;;;;;;;5.07;1.38;;;18.60;99.90;;;;;;4998579;28;20125;-77
2023/09/01 11:45:54;;;;;;;5.70;1.60;;;18.60;99.90;;;;;;4999839;28;20061;-75
2023/09/01 11:48:24;;;;;;;6.38;1.45;;;18.70;99.90;;;;;;5000388;28;20046;-77
2023/09/01 11:50:53;;;;;;;3.72;1.30;;;18.70;99.90;;;;;;4999982;28;20050;-75
2023/09/01 11:53:27;;;;;;;5.90;1.60;;;18.80;99.90;;;;;;4997591;28;20491;-75
2023/09/01 11:56:09;;;;;;;6.38;1.83;;;18.80;99.90;;;;;;4999160;28;20030;-74
2023/09/01 11:58:35;;;;;;;4.10;1.80;;;18.80;99.90;;;;;;4997551;28;20512;-74
2023/09/01 12:01:12;;;;;;;6.80;1.95;;;18.70;99.90;;;;;;4999849;28;20034;-73
2023/09/01 12:03:38;;;;;;;6.47;1.88;;;18.80;99.90;;;;;;5002104;28;20030;-76
2023/09/01 12:06:20;;;;;;;9.70;2.15;;;18.80;99.90;;;;;;5001580;28;20041;-75
2023/09/01 12:08:47;;;;;;;7.63;2.47;;;18.80;99.90;;;;;;5002333;28;20034;-75
2023/09/01 12:11:13;;;;;;;8.57;2.63;;;18.80;99.90;;;;;;5001969;28;20411;-76
2023/09/01 12:13:39;;;;;;;5.32;2.33;;;18.70;99.90;;;;;;5001394;28;20049;-75
2023/09/01 12:16:05;;;;;;;7.18;2.50;;;18.70;99.90;;;;;;5001181;28;20030;-74
2023/09/01 12:18:38;;;;;;;6.47;3.05;;;18.70;99.90;;;;;;5000547;28;20116;-74
2023/09/01 12:21:05;;;;;;;10.63;2.72;;;18.70;99.90;;;;;;5002083;28;20037;-74
2023/09/01 12:23:35;;;;;;;7.25;2.70;;;18.80;99.90;;;;;;5001717;28;20079;-75
2023/09/01 12:26:01;;;;;;;8.25;3.22;;;18.80;99.90;;;;;;5001365;28;20054;-76
2023/09/01 12:28:28;;;;;;;8.93;2.90;;;18.80;99.90;;;;;;5002117;28;20038;-75
2023/09/01 12:30:56;;;;;;;7.68;3.40;;;18.90;99.90;;;;;;5001805;28;20030;-74
2023/09/01 12:33:22;;;;;;;15.80;4.60;;;18.90;99.90;;;;;;5001267;28;20044;-75
2023/09/01 12:35:48;;;;;;;9.00;4.05;;;19.00;99.90;;;;;;5000596;28;20096;-74
2023/09/01 12:38:14;;;;;;;7.75;3.38;;;19.10;99.90;;;;;;5002092;28;20073;-74
2023/09/01 12:40:39;;;;;;;8.05;3.45;;;19.20;99.90;;;;;;5001723;28;20037;-75
2023/09/01 12:43:05;;;;;;;12.00;3.30;;;19.30;99.90;;;;;;5001239;28;20590;-72